PWSweather.com
Personal Weather Stations
Station Observations
ISARDEGN48
BittiIT 08021

BittiIT 08021

Lat: 40.4805, Lon: 9.3887

Elevation: 1804

Station Type: La Crosse WS2355

http://meteobitti.altervista.org

High Low Average
Temperature 57.7°F14.3°C 49.1°F9.5°C 52.5°F11.4°C
Dew Point 51.3°F10.7°C 45.7°F7.6°C 48.6°F9.2°C
Winds 15.2 mph 24.5 kmh Calm Calm 4.0 mph E6.4 kmh E
Wind Gusts 19.7 mph31.7 kmh 2.9 mph4.7 kmh 10.0 mph16.1 kmh
Humidity 90% 78% 87%
Pressure 29.68 in1005.1 mb 29.45 in997.3 mb -
Precipitation 0.24 in6.1 mm - -
Hour Temp Dew Point Humidity Winds Wind Gusts Pressure Precip Precip Rate Daily Precip Total
12:00 AM 49.3°F9.6°C 46.1°F7.8°C 89% 2.0 mph E3.2 kmh E 6.5 mph10.5 kmh 29.48 in998.3 mb 0.00 in0.0 mm 0.00 in0.0 mm 0.00 in0.0 mm
12:05 AM 49.3°F9.6°C 46.1°F7.8°C 89% 1.3 mph E2.1 kmh E 8.9 mph14.3 kmh 29.48 in998.3 mb 0.00 in0.0 mm 0.00 in0.0 mm 0.00 in0.0 mm
12:10 AM 49.3°F9.6°C 46.1°F7.8°C 89% 0.9 mph E1.4 kmh E 8.9 mph14.3 kmh 29.48 in998.3 mb 0.00 in0.0 mm 0.00 in0.0 mm 0.00 in0.0 mm
12:15 AM 49.3°F9.6°C 45.8°F7.7°C 88% 1.3 mph ESE2.1 kmh ESE 4.7 mph7.6 kmh 29.47 in998.0 mb 0.00 in0.0 mm 0.00 in0.0 mm 0.00 in0.0 mm
12:20 AM 49.3°F9.6°C 45.8°F7.7°C 88% 1.8 mph SSE2.9 kmh SSE 4.7 mph7.6 kmh 29.48 in998.3 mb 0.00 in0.0 mm 0.00 in0.0 mm 0.00 in0.0 mm
12:25 AM 49.3°F9.6°C 45.8°F7.7°C 88% Calm Calm 6.0 mph9.7 kmh 29.48 in998.3 mb 0.00 in0.0 mm 0.00 in0.0 mm 0.00 in0.0 mm
12:30 AM 49.1°F9.5°C 45.7°F7.6°C 88% 1.8 mph SE2.9 kmh SE 6.0 mph9.7 kmh 29.48 in998.3 mb 0.00 in0.0 mm 0.00 in0.0 mm 0.00 in0.0 mm
12:35 AM 49.3°F9.6°C 46.1°F7.8°C 89% Calm Calm 6.5 mph10.5 kmh 29.48 in998.3 mb 0.00 in0.0 mm 0.00 in0.0 mm 0.00 in0.0 mm
12:40 AM 49.3°F9.6°C 45.8°F7.7°C 88% Calm Calm 6.5 mph10.5 kmh 29.47 in998.0 mb 0.00 in0.0 mm 0.00 in0.0 mm 0.00 in0.0 mm
12:45 AM 49.1°F9.5°C 46.0°F7.8°C 89% 3.6 mph E5.8 kmh E 4.7 mph7.6 kmh 29.48 in998.3 mb 0.00 in0.0 mm 0.00 in0.0 mm 0.00 in0.0 mm
12:50 AM 49.3°F9.6°C 46.1°F7.8°C 89% Calm Calm 4.5 mph7.2 kmh 29.48 in998.3 mb 0.00 in0.0 mm 0.00 in0.0 mm 0.00 in0.0 mm
12:55 AM 49.3°F9.6°C 45.8°F7.7°C 88% 4.3 mph ENE6.9 kmh ENE 16.3 mph26.2 kmh 29.47 in998.0 mb 0.00 in0.0 mm 0.00 in0.0 mm 0.00 in0.0 mm
01:00 AM 49.3°F9.6°C 45.8°F7.7°C 88% 1.8 mph ENE2.9 kmh ENE 16.3 mph26.2 kmh 29.48 in998.3 mb 0.00 in0.0 mm 0.00 in0.0 mm 0.00 in0.0 mm
01:05 AM 49.6°F9.8°C 46.2°F7.9°C 88% Calm Calm 8.9 mph14.3 kmh 29.48 in998.3 mb 0.00 in0.0 mm 0.00 in0.0 mm 0.00 in0.0 mm
01:10 AM 49.6°F9.8°C 46.2°F7.9°C 88% Calm Calm 8.9 mph14.3 kmh 29.48 in998.3 mb 0.00 in0.0 mm 0.00 in0.0 mm 0.00 in0.0 mm
01:15 AM 49.5°F9.7°C 46.0°F7.8°C 88% Calm Calm 3.8 mph6.1 kmh 29.48 in998.3 mb 0.00 in0.0 mm 0.00 in0.0 mm 0.00 in0.0 mm
01:20 AM 49.5°F9.7°C 46.0°F7.8°C 88% 2.9 mph E4.7 kmh E 13.0 mph20.9 kmh 29.47 in998.0 mb 0.00 in0.0 mm 0.00 in0.0 mm 0.00 in0.0 mm
01:25 AM 49.3°F9.6°C 45.8°F7.7°C 88% 1.3 mph E2.1 kmh E 13.0 mph20.9 kmh 29.47 in998.0 mb 0.00 in0.0 mm 0.00 in0.0 mm 0.00 in0.0 mm
01:30 AM 49.6°F9.8°C 46.2°F7.9°C 88% 3.8 mph E6.1 kmh E 7.6 mph12.2 kmh 29.48 in998.3 mb 0.00 in0.0 mm 0.00 in0.0 mm 0.00 in0.0 mm
01:35 AM 49.6°F9.8°C 46.2°F7.9°C 88% 9.2 mph E14.8 kmh E 10.7 mph17.2 kmh 29.48 in998.3 mb 0.00 in0.0 mm 0.00 in0.0 mm 0.00 in0.0 mm
01:40 AM 49.6°F9.8°C 46.2°F7.9°C 88% 6.3 mph NE10.1 kmh NE 11.0 mph17.7 kmh 29.48 in998.3 mb 0.00 in0.0 mm 0.00 in0.0 mm 0.00 in0.0 mm
01:45 AM 49.8°F9.9°C 46.3°F7.9°C 88% 2.2 mph NE3.5 kmh NE 11.0 mph17.7 kmh 29.48 in998.3 mb 0.00 in0.0 mm 0.00 in0.0 mm 0.00 in0.0 mm
01:50 AM 49.8°F9.9°C 46.3°F7.9°C 88% 5.8 mph ENE9.3 kmh ENE 9.2 mph14.8 kmh 29.48 in998.3 mb 0.00 in0.0 mm 0.00 in0.0 mm 0.00 in0.0 mm
01:55 AM 49.8°F9.9°C 46.3°F7.9°C 88% 1.3 mph NE2.1 kmh NE 13.0 mph20.9 kmh 29.48 in998.3 mb 0.00 in0.0 mm 0.00 in0.0 mm 0.00 in0.0 mm
02:00 AM 49.8°F9.9°C 46.3°F7.9°C 88% 4.7 mph NE7.6 kmh NE 13.0 mph20.9 kmh 29.48 in998.3 mb 0.00 in0.0 mm 0.00 in0.0 mm 0.00 in0.0 mm
02:05 AM 49.8°F9.9°C 46.3°F7.9°C 88% 2.5 mph NE4.0 kmh NE 14.3 mph23.0 kmh 29.48 in998.3 mb 0.00 in0.0 mm 0.00 in0.0 mm 0.00 in0.0 mm
02:10 AM 49.8°F9.9°C 46.3°F7.9°C 88% 6.3 mph ENE10.1 kmh ENE 14.3 mph23.0 kmh 29.47 in998.0 mb 0.00 in0.0 mm 0.00 in0.0 mm 0.00 in0.0 mm
02:15 AM 49.8°F9.9°C 46.3°F7.9°C 88% 6.3 mph ENE10.1 kmh ENE 13.6 mph21.9 kmh 29.47 in998.0 mb 0.00 in0.0 mm 0.00 in0.0 mm 0.00 in0.0 mm
02:20 AM 49.8°F9.9°C 46.3°F7.9°C 88% 6.0 mph ENE9.7 kmh ENE 13.6 mph21.9 kmh 29.47 in998.0 mb 0.00 in0.0 mm 0.00 in0.0 mm 0.00 in0.0 mm
02:25 AM 49.8°F9.9°C 46.3°F7.9°C 88% 6.3 mph ENE10.1 kmh ENE 15.4 mph24.8 kmh 29.47 in998.0 mb 0.00 in0.0 mm 0.00 in0.0 mm 0.00 in0.0 mm
02:30 AM 49.8°F9.9°C 46.3°F7.9°C 88% 10.7 mph ENE17.2 kmh ENE 15.4 mph24.8 kmh 29.46 in997.6 mb 0.00 in0.0 mm 0.00 in0.0 mm 0.00 in0.0 mm
02:35 AM 49.8°F9.9°C 46.3°F7.9°C 88% 13.0 mph ENE20.9 kmh ENE 13.6 mph21.9 kmh 29.47 in998.0 mb 0.00 in0.0 mm 0.00 in0.0 mm 0.00 in0.0 mm
02:40 AM 50.2°F10.1°C 46.7°F8.2°C 88% 7.4 mph NE11.9 kmh NE 15.0 mph24.1 kmh 29.47 in998.0 mb 0.00 in0.0 mm 0.00 in0.0 mm 0.00 in0.0 mm
02:45 AM 50.2°F10.1°C 46.7°F8.2°C 88% 8.9 mph NE14.3 kmh NE 15.0 mph24.1 kmh 29.47 in998.0 mb 0.00 in0.0 mm 0.00 in0.0 mm 0.00 in0.0 mm
02:50 AM 50.2°F10.1°C 46.7°F8.2°C 88% 5.8 mph NE9.3 kmh NE 11.6 mph18.7 kmh 29.46 in997.6 mb 0.00 in0.0 mm 0.00 in0.0 mm 0.00 in0.0 mm
02:55 AM 50.2°F10.1°C 46.7°F8.2°C 88% 9.2 mph NE14.8 kmh NE 13.0 mph20.9 kmh 29.47 in998.0 mb 0.00 in0.0 mm 0.00 in0.0 mm 0.00 in0.0 mm
03:00 AM 50.2°F10.1°C 46.4°F8.0°C 87% 7.2 mph ENE11.6 kmh ENE 13.0 mph20.9 kmh 29.47 in998.0 mb 0.00 in0.0 mm 0.00 in0.0 mm 0.00 in0.0 mm
03:05 AM 50.2°F10.1°C 46.4°F8.0°C 87% 3.6 mph ENE5.8 kmh ENE 12.3 mph19.8 kmh 29.46 in997.6 mb 0.00 in0.0 mm 0.00 in0.0 mm 0.00 in0.0 mm
03:10 AM 50.2°F10.1°C 46.4°F8.0°C 87% 2.0 mph ESE3.2 kmh ESE 7.2 mph11.6 kmh 29.46 in997.6 mb 0.00 in0.0 mm 0.00 in0.0 mm 0.00 in0.0 mm
03:15 AM 50.2°F10.1°C 46.4°F8.0°C 87% 3.4 mph E5.5 kmh E 5.4 mph8.7 kmh 29.46 in997.6 mb 0.00 in0.0 mm 0.00 in0.0 mm 0.00 in0.0 mm
03:20 AM 50.2°F10.1°C 46.4°F8.0°C 87% 2.5 mph E4.0 kmh E 5.4 mph8.7 kmh 29.46 in997.6 mb 0.00 in0.0 mm 0.00 in0.0 mm 0.00 in0.0 mm
03:25 AM 50.2°F10.1°C 46.4°F8.0°C 87% 1.3 mph SE2.1 kmh SE 5.1 mph8.2 kmh 29.46 in997.6 mb 0.00 in0.0 mm 0.00 in0.0 mm 0.00 in0.0 mm
03:30 AM 50.2°F10.1°C 46.4°F8.0°C 87% 1.6 mph SE2.6 kmh SE 5.8 mph9.3 kmh 29.46 in997.6 mb 0.00 in0.0 mm 0.00 in0.0 mm 0.00 in0.0 mm
03:35 AM 50.2°F10.1°C 46.1°F7.8°C 86% 5.6 mph SSW9.0 kmh SSW 10.3 mph16.6 kmh 29.46 in997.6 mb 0.00 in0.0 mm 0.00 in0.0 mm 0.00 in0.0 mm
03:40 AM 50.2°F10.1°C 46.1°F7.8°C 86% 1.6 mph SW2.6 kmh SW 10.3 mph16.6 kmh 29.46 in997.6 mb 0.00 in0.0 mm 0.00 in0.0 mm 0.00 in0.0 mm
03:45 AM 50.2°F10.1°C 46.1°F7.8°C 86% 3.8 mph SSW6.1 kmh SSW 7.6 mph12.2 kmh 29.45 in997.3 mb 0.00 in0.0 mm 0.00 in0.0 mm 0.00 in0.0 mm
03:50 AM 50.2°F10.1°C 46.1°F7.8°C 86% Calm Calm 5.6 mph9.0 kmh 29.45 in997.3 mb 0.00 in0.0 mm 0.00 in0.0 mm 0.00 in0.0 mm
03:55 AM 50.2°F10.1°C 46.1°F7.8°C 86% 2.5 mph ESE4.0 kmh ESE 5.8 mph9.3 kmh 29.45 in997.3 mb 0.00 in0.0 mm 0.00 in0.0 mm 0.00 in0.0 mm
04:00 AM 50.2°F10.1°C 46.1°F7.8°C 86% 2.5 mph E4.0 kmh E 9.6 mph15.4 kmh 29.45 in997.3 mb 0.00 in0.0 mm 0.00 in0.0 mm 0.00 in0.0 mm
04:05 AM 50.2°F10.1°C 46.4°F8.0°C 87% Calm Calm 9.6 mph15.4 kmh 29.45 in997.3 mb 0.00 in0.0 mm 0.00 in0.0 mm 0.00 in0.0 mm
04:10 AM 50.2°F10.1°C 46.4°F8.0°C 87% 3.4 mph ESE5.5 kmh ESE 6.5 mph10.5 kmh 29.45 in997.3 mb 0.00 in0.0 mm 0.00 in0.0 mm 0.00 in0.0 mm
04:15 AM 50.2°F10.1°C 46.4°F8.0°C 87% 2.0 mph S3.2 kmh S 6.5 mph10.5 kmh 29.45 in997.3 mb 0.00 in0.0 mm 0.00 in0.0 mm 0.00 in0.0 mm
04:20 AM 50.2°F10.1°C 46.4°F8.0°C 87% 7.6 mph S12.2 kmh S 12.5 mph20.1 kmh 29.45 in997.3 mb 0.00 in0.0 mm 0.00 in0.0 mm 0.00 in0.0 mm
04:25 AM 50.4°F10.2°C 46.6°F8.1°C 87% 4.9 mph SSW7.9 kmh SSW 12.5 mph20.1 kmh 29.45 in997.3 mb 0.00 in0.0 mm 0.00 in0.0 mm 0.00 in0.0 mm
04:30 AM 50.4°F10.2°C 46.9°F8.3°C 88% 6.7 mph SSW10.8 kmh SSW 9.6 mph15.4 kmh 29.45 in997.3 mb 0.00 in0.0 mm 0.00 in0.0 mm 0.00 in0.0 mm
04:35 AM 50.4°F10.2°C 46.9°F8.3°C 88% 6.0 mph SSW9.7 kmh SSW 12.3 mph19.8 kmh 29.45 in997.3 mb 0.00 in0.0 mm 0.00 in0.0 mm 0.00 in0.0 mm
04:40 AM 50.4°F10.2°C 46.9°F8.3°C 88% 1.8 mph SSW2.9 kmh SSW 12.3 mph19.8 kmh 29.45 in997.3 mb 0.00 in0.0 mm 0.00 in0.0 mm 0.00 in0.0 mm
04:45 AM 50.2°F10.1°C 46.7°F8.2°C 88% 3.8 mph SW6.1 kmh SW 10.5 mph16.9 kmh 29.45 in997.3 mb 0.00 in0.0 mm 0.00 in0.0 mm 0.00 in0.0 mm
04:50 AM 50.2°F10.1°C 46.7°F8.2°C 88% 3.8 mph SSW6.1 kmh SSW 10.3 mph16.6 kmh 29.45 in997.3 mb 0.00 in0.0 mm 0.00 in0.0 mm 0.00 in0.0 mm
04:55 AM 50.4°F10.2°C 46.9°F8.3°C 88% 3.1 mph SSW5.0 kmh SSW 10.3 mph16.6 kmh 29.45 in997.3 mb 0.00 in0.0 mm 0.00 in0.0 mm 0.00 in0.0 mm
05:00 AM 50.4°F10.2°C 46.9°F8.3°C 88% 0.9 mph S1.4 kmh S 9.2 mph14.8 kmh 29.45 in997.3 mb 0.00 in0.0 mm 0.00 in0.0 mm 0.00 in0.0 mm
05:05 AM 50.5°F10.3°C 47.0°F8.3°C 88% 6.0 mph E9.7 kmh E 11.0 mph17.7 kmh 29.45 in997.3 mb 0.00 in0.0 mm 0.00 in0.0 mm 0.00 in0.0 mm
05:10 AM 50.5°F10.3°C 47.0°F8.3°C 88% 4.7 mph NE7.6 kmh NE 11.0 mph17.7 kmh 29.45 in997.3 mb 0.00 in0.0 mm 0.00 in0.0 mm 0.00 in0.0 mm
05:15 AM 50.5°F10.3°C 47.0°F8.3°C 88% 6.7 mph ENE10.8 kmh ENE 7.6 mph12.2 kmh 29.45 in997.3 mb 0.00 in0.0 mm 0.00 in0.0 mm 0.00 in0.0 mm
05:20 AM 50.5°F10.3°C 47.0°F8.3°C 88% Calm Calm 7.6 mph12.2 kmh 29.46 in997.6 mb 0.02 in0.5 mm 0.24 in6.1 mm 0.02 in0.5 mm
05:25 AM 50.5°F10.3°C 47.0°F8.3°C 88% 5.1 mph ENE8.2 kmh ENE 9.6 mph15.4 kmh 29.46 in997.6 mb 0.02 in0.5 mm 0.00 in0.0 mm 0.02 in0.5 mm
05:30 AM 50.5°F10.3°C 47.4°F8.6°C 89% 1.6 mph E2.6 kmh E 9.6 mph15.4 kmh 29.46 in997.6 mb 0.02 in0.5 mm 0.00 in0.0 mm 0.02 in0.5 mm
05:35 AM 50.5°F10.3°C 47.4°F8.6°C 89% 4.5 mph E7.2 kmh E 7.4 mph11.9 kmh 29.46 in997.6 mb 0.02 in0.5 mm 0.00 in0.0 mm 0.02 in0.5 mm
05:40 AM 50.5°F10.3°C 47.4°F8.6°C 89% 10.7 mph NE17.2 kmh NE 13.9 mph22.4 kmh 29.46 in997.6 mb 0.02 in0.5 mm 0.00 in0.0 mm 0.02 in0.5 mm
05:45 AM 50.7°F10.4°C 47.5°F8.6°C 89% 6.9 mph NE11.1 kmh NE 13.9 mph22.4 kmh 29.46 in997.6 mb 0.02 in0.5 mm 0.00 in0.0 mm 0.02 in0.5 mm
05:50 AM 50.7°F10.4°C 47.5°F8.6°C 89% 6.0 mph NE9.7 kmh NE 13.4 mph21.6 kmh 29.47 in998.0 mb 0.04 in1.0 mm 0.24 in6.1 mm 0.04 in1.0 mm
05:55 AM 50.7°F10.4°C 47.5°F8.6°C 89% 5.1 mph NE8.2 kmh NE 13.4 mph21.6 kmh 29.47 in998.0 mb 0.04 in1.0 mm 0.00 in0.0 mm 0.04 in1.0 mm
06:00 AM 50.7°F10.4°C 47.2°F8.4°C 88% 12.1 mph NE19.5 kmh NE 17.7 mph28.5 kmh 29.47 in998.0 mb 0.04 in1.0 mm 0.00 in0.0 mm 0.04 in1.0 mm
06:05 AM 50.7°F10.4°C 47.2°F8.4°C 88% 4.3 mph NE6.9 kmh NE 17.7 mph28.5 kmh 29.48 in998.3 mb 0.04 in1.0 mm 0.00 in0.0 mm 0.04 in1.0 mm
06:10 AM 50.9°F10.5°C 47.1°F8.4°C 87% 2.5 mph NNE4.0 kmh NNE 17.0 mph27.4 kmh 29.48 in998.3 mb 0.04 in1.0 mm 0.00 in0.0 mm 0.04 in1.0 mm
06:15 AM 50.9°F10.5°C 47.1°F8.4°C 87% 2.9 mph NNE4.7 kmh NNE 15.9 mph25.6 kmh 29.48 in998.3 mb 0.04 in1.0 mm 0.00 in0.0 mm 0.04 in1.0 mm
06:20 AM 51.1°F10.6°C 47.3°F8.5°C 87% 3.1 mph NE5.0 kmh NE 15.9 mph25.6 kmh 29.48 in998.3 mb 0.02 in0.5 mm 0.00 in0.0 mm 0.04 in1.0 mm
06:25 AM 51.1°F10.6°C 47.3°F8.5°C 87% 4.5 mph NE7.2 kmh NE 13.0 mph20.9 kmh 29.48 in998.3 mb 0.02 in0.5 mm 0.00 in0.0 mm 0.04 in1.0 mm
06:30 AM 51.1°F10.6°C 47.3°F8.5°C 87% 6.3 mph ENE10.1 kmh ENE 12.5 mph20.1 kmh 29.48 in998.3 mb 0.02 in0.5 mm 0.00 in0.0 mm 0.04 in1.0 mm
06:35 AM 51.1°F10.6°C 47.3°F8.5°C 87% 8.1 mph ENE13.0 kmh ENE 16.1 mph25.9 kmh 29.48 in998.3 mb 0.02 in0.5 mm 0.00 in0.0 mm 0.04 in1.0 mm
06:40 AM 51.1°F10.6°C 47.3°F8.5°C 87% 2.2 mph E3.5 kmh E 16.1 mph25.9 kmh 29.48 in998.3 mb 0.02 in0.5 mm 0.00 in0.0 mm 0.04 in1.0 mm
06:45 AM 51.1°F10.6°C 47.0°F8.3°C 86% 8.9 mph ESE14.3 kmh ESE 14.1 mph22.7 kmh 29.48 in998.3 mb 0.02 in0.5 mm 0.00 in0.0 mm 0.04 in1.0 mm
06:50 AM 51.1°F10.6°C 47.0°F8.3°C 86% 8.9 mph ESE14.3 kmh ESE 11.9 mph19.2 kmh 29.48 in998.3 mb 0.00 in0.0 mm 0.00 in0.0 mm 0.04 in1.0 mm
06:55 AM 51.1°F10.6°C 47.0°F8.3°C 86% 4.0 mph ESE6.4 kmh ESE 11.9 mph19.2 kmh 29.48 in998.3 mb 0.00 in0.0 mm 0.00 in0.0 mm 0.04 in1.0 mm
07:00 AM 51.1°F10.6°C 47.0°F8.3°C 86% 3.1 mph E5.0 kmh E 11.9 mph19.2 kmh 29.48 in998.3 mb 0.00 in0.0 mm 0.00 in0.0 mm 0.04 in1.0 mm
07:05 AM 51.1°F10.6°C 47.0°F8.3°C 87% 6.7 mph E10.8 kmh E 13.0 mph20.9 kmh 29.48 in998.3 mb 0.00 in0.0 mm 0.00 in0.0 mm 0.04 in1.0 mm
07:10 AM 51.1°F10.6°C 47.3°F8.5°C 87% 6.0 mph E9.7 kmh E 13.0 mph20.9 kmh 29.48 in998.3 mb 0.00 in0.0 mm 0.00 in0.0 mm 0.04 in1.0 mm
07:15 AM 51.1°F10.6°C 47.3°F8.5°C 87% 5.4 mph E8.7 kmh E 11.2 mph18.0 kmh 29.49 in998.6 mb 0.00 in0.0 mm 0.00 in0.0 mm 0.04 in1.0 mm
07:20 AM 51.1°F10.6°C 47.3°F8.5°C 87% 4.0 mph E6.4 kmh E 13.0 mph20.9 kmh 29.49 in998.6 mb 0.00 in0.0 mm 0.00 in0.0 mm 0.04 in1.0 mm
07:25 AM 50.9°F10.5°C 47.4°F8.6°C 88% 1.8 mph E2.9 kmh E 13.0 mph20.9 kmh 29.49 in998.6 mb 0.02 in0.5 mm 0.24 in6.1 mm 0.06 in1.5 mm
07:30 AM 50.9°F10.5°C 47.4°F8.6°C 88% 3.8 mph E6.1 kmh E 12.1 mph19.5 kmh 29.49 in998.6 mb 0.02 in0.5 mm 0.00 in0.0 mm 0.06 in1.5 mm
07:35 AM 50.7°F10.4°C 47.2°F8.4°C 88% 1.3 mph E2.1 kmh E 12.1 mph19.5 kmh 29.49 in998.6 mb 0.02 in0.5 mm 0.00 in0.0 mm 0.06 in1.5 mm
07:40 AM 50.9°F10.5°C 47.4°F8.6°C 88% 11.2 mph ENE18.0 kmh ENE 11.6 mph18.7 kmh 29.48 in998.3 mb 0.04 in1.0 mm 0.24 in6.1 mm 0.08 in2.0 mm
07:45 AM 50.9°F10.5°C 47.7°F8.7°C 89% 6.0 mph E9.7 kmh E 13.2 mph21.2 kmh 29.48 in998.3 mb 0.04 in1.0 mm 0.00 in0.0 mm 0.08 in2.0 mm
07:50 AM 51.1°F10.6°C 47.9°F8.8°C 89% 7.8 mph E12.6 kmh E 13.2 mph21.2 kmh 29.48 in998.3 mb 0.06 in1.5 mm 0.24 in6.1 mm 0.10 in2.5 mm
07:55 AM 51.3°F10.7°C 48.1°F8.9°C 89% 4.5 mph ENE7.2 kmh ENE 18.3 mph29.5 kmh 29.49 in998.6 mb 0.08 in2.0 mm 0.24 in6.1 mm 0.12 in3.0 mm
08:00 AM 51.4°F10.8°C 48.3°F9.1°C 89% 10.7 mph NE17.2 kmh NE 18.3 mph29.5 kmh 29.49 in998.6 mb 0.08 in2.0 mm 0.00 in0.0 mm 0.12 in3.0 mm
08:05 AM 51.4°F10.8°C 48.3°F9.1°C 89% 10.7 mph NE17.2 kmh NE 19.7 mph31.7 kmh 29.49 in998.6 mb 0.10 in2.5 mm 0.24 in6.1 mm 0.14 in3.6 mm
08:10 AM 51.6°F10.9°C 48.1°F8.9°C 88% 9.2 mph NNE14.8 kmh NNE 19.7 mph31.7 kmh 29.49 in998.6 mb 0.10 in2.5 mm 0.00 in0.0 mm 0.14 in3.6 mm
08:15 AM 51.6°F10.9°C 48.1°F8.9°C 88% 7.6 mph NNE12.2 kmh NNE 18.3 mph29.5 kmh 29.49 in998.6 mb 0.10 in2.5 mm 0.00 in0.0 mm 0.14 in3.6 mm
08:20 AM 51.6°F10.9°C 48.1°F8.9°C 88% 12.1 mph NE19.5 kmh NE 14.5 mph23.3 kmh 29.50 in999.0 mb 0.08 in2.0 mm 0.00 in0.0 mm 0.14 in3.6 mm
08:25 AM 51.6°F10.9°C 48.1°F8.9°C 88% 8.3 mph NE13.4 kmh NE 13.0 mph20.9 kmh 29.49 in998.6 mb 0.08 in2.0 mm 0.00 in0.0 mm 0.14 in3.6 mm
08:30 AM 51.8°F11.0°C 48.3°F9.1°C 88% 6.0 mph NE9.7 kmh NE 18.3 mph29.5 kmh 29.50 in999.0 mb 0.08 in2.0 mm 0.00 in0.0 mm 0.14 in3.6 mm
08:35 AM 51.8°F11.0°C 48.0°F8.9°C 87% 5.8 mph NE9.3 kmh NE 18.3 mph29.5 kmh 29.50 in999.0 mb 0.08 in2.0 mm 0.00 in0.0 mm 0.14 in3.6 mm
08:40 AM 52.0°F11.1°C 48.2°F9.0°C 87% 5.4 mph NE8.7 kmh NE 17.7 mph28.5 kmh 29.49 in998.6 mb 0.08 in2.0 mm 0.00 in0.0 mm 0.16 in4.1 mm
08:45 AM 52.0°F11.1°C 48.5°F9.2°C 88% 6.7 mph NE10.8 kmh NE 14.8 mph23.8 kmh 29.49 in998.6 mb 0.08 in2.0 mm 0.00 in0.0 mm 0.16 in4.1 mm
08:50 AM 52.0°F11.1°C 48.5°F9.2°C 88% 8.5 mph ENE13.7 kmh ENE 16.3 mph26.2 kmh 29.49 in998.6 mb 0.06 in1.5 mm 0.00 in0.0 mm 0.16 in4.1 mm
08:55 AM 52.2°F11.2°C 48.7°F9.3°C 88% 11.0 mph ENE17.7 kmh ENE 17.2 mph27.7 kmh 29.49 in998.6 mb 0.04 in1.0 mm 0.00 in0.0 mm 0.16 in4.1 mm
09:00 AM 52.2°F11.2°C 48.7°F9.3°C 88% 6.7 mph ENE10.8 kmh ENE 18.1 mph29.1 kmh 29.50 in999.0 mb 0.04 in1.0 mm 0.00 in0.0 mm 0.16 in4.1 mm
09:05 AM 52.2°F11.2°C 48.7°F9.3°C 88% 15.2 mph ENE24.5 kmh ENE 18.1 mph29.1 kmh 29.50 in999.0 mb 0.02 in0.5 mm 0.00 in0.0 mm 0.16 in4.1 mm
09:10 AM 52.2°F11.2°C 49.0°F9.4°C 89% 8.1 mph NE13.0 kmh NE 17.4 mph28.0 kmh 29.50 in999.0 mb 0.02 in0.5 mm 0.00 in0.0 mm 0.16 in4.1 mm
09:15 AM 52.0°F11.1°C 48.8°F9.3°C 89% 3.8 mph NE6.1 kmh NE 15.4 mph24.8 kmh 29.50 in999.0 mb 0.04 in1.0 mm 0.24 in6.1 mm 0.18 in4.6 mm
09:20 AM 52.0°F11.1°C 48.8°F9.3°C 89% 6.5 mph NE10.5 kmh NE 14.1 mph22.7 kmh 29.51 in999.3 mb 0.04 in1.0 mm 0.00 in0.0 mm 0.18 in4.6 mm
09:25 AM 52.2°F11.2°C 49.0°F9.4°C 89% 6.9 mph NE11.1 kmh NE 14.5 mph23.3 kmh 29.51 in999.3 mb 0.04 in1.0 mm 0.00 in0.0 mm 0.18 in4.6 mm
09:30 AM 52.2°F11.2°C 49.0°F9.4°C 89% 9.8 mph NNE15.8 kmh NNE 14.5 mph23.3 kmh 29.51 in999.3 mb 0.04 in1.0 mm 0.00 in0.0 mm 0.18 in4.6 mm
09:35 AM 52.3°F11.3°C 49.2°F9.6°C 89% 7.4 mph NNE11.9 kmh NNE 13.4 mph21.6 kmh 29.51 in999.3 mb 0.04 in1.0 mm 0.00 in0.0 mm 0.18 in4.6 mm
09:40 AM 52.3°F11.3°C 49.2°F9.6°C 89% 10.5 mph NE16.9 kmh NE 10.5 mph16.9 kmh 29.51 in999.3 mb 0.02 in0.5 mm 0.00 in0.0 mm 0.18 in4.6 mm
09:45 AM 52.3°F11.3°C 49.2°F9.6°C 89% 5.1 mph NE8.2 kmh NE 10.5 mph16.9 kmh 29.51 in999.3 mb 0.02 in0.5 mm 0.00 in0.0 mm 0.18 in4.6 mm
09:50 AM 52.3°F11.3°C 49.2°F9.6°C 89% 5.1 mph NE8.2 kmh NE 11.0 mph17.7 kmh 29.52 in999.7 mb 0.02 in0.5 mm 0.00 in0.0 mm 0.18 in4.6 mm
09:55 AM 52.3°F11.3°C 49.2°F9.6°C 89% 6.0 mph NE9.7 kmh NE 11.0 mph17.7 kmh 29.52 in999.7 mb 0.02 in0.5 mm 0.00 in0.0 mm 0.18 in4.6 mm
10:00 AM 52.5°F11.4°C 49.3°F9.6°C 89% 2.0 mph ENE3.2 kmh ENE 12.5 mph20.1 kmh 29.52 in999.7 mb 0.02 in0.5 mm 0.00 in0.0 mm 0.18 in4.6 mm
10:05 AM 52.3°F11.3°C 49.2°F9.6°C 89% 10.7 mph NE17.2 kmh NE 12.5 mph20.1 kmh 29.52 in999.7 mb 0.02 in0.5 mm 0.00 in0.0 mm 0.18 in4.6 mm
10:10 AM 52.5°F11.4°C 49.3°F9.6°C 89% 4.5 mph NE7.2 kmh NE 11.9 mph19.2 kmh 29.52 in999.7 mb 0.02 in0.5 mm 0.00 in0.0 mm 0.18 in4.6 mm
10:15 AM 52.3°F11.3°C 49.2°F9.6°C 89% 5.8 mph ENE9.3 kmh ENE 9.8 mph15.8 kmh 29.52 in999.7 mb 0.00 in0.0 mm 0.00 in0.0 mm 0.18 in4.6 mm
10:20 AM 52.3°F11.3°C 49.2°F9.6°C 89% 4.7 mph E7.6 kmh E 9.6 mph15.4 kmh 29.52 in999.7 mb 0.00 in0.0 mm 0.00 in0.0 mm 0.18 in4.6 mm
10:25 AM 52.5°F11.4°C 49.3°F9.6°C 89% 2.9 mph E4.7 kmh E 10.1 mph16.3 kmh 29.52 in999.7 mb 0.00 in0.0 mm 0.00 in0.0 mm 0.18 in4.6 mm
10:30 AM 52.5°F11.4°C 49.3°F9.6°C 89% 5.8 mph ESE9.3 kmh ESE 10.1 mph16.3 kmh 29.52 in999.7 mb 0.00 in0.0 mm 0.00 in0.0 mm 0.18 in4.6 mm
10:35 AM 52.5°F11.4°C 49.3°F9.6°C 89% 4.0 mph ESE6.4 kmh ESE 9.2 mph14.8 kmh 29.52 in999.7 mb 0.02 in0.5 mm 0.24 in6.1 mm 0.20 in5.1 mm
10:40 AM 52.7°F11.5°C 49.5°F9.7°C 89% 1.8 mph E2.9 kmh E 9.2 mph14.8 kmh 29.52 in999.7 mb 0.02 in0.5 mm 0.00 in0.0 mm 0.20 in5.1 mm
10:45 AM 52.7°F11.5°C 49.5°F9.7°C 89% 2.2 mph E3.5 kmh E 9.2 mph14.8 kmh 29.53 in1000.0 mb 0.04 in1.0 mm 0.24 in6.1 mm 0.22 in5.6 mm
10:50 AM 52.7°F11.5°C 49.5°F9.7°C 89% 1.6 mph ENE2.6 kmh ENE 9.2 mph14.8 kmh 29.52 in999.7 mb 0.04 in1.0 mm 0.00 in0.0 mm 0.22 in5.6 mm
10:55 AM 52.7°F11.5°C 49.5°F9.7°C 89% 1.8 mph NNE2.9 kmh NNE 9.8 mph15.8 kmh 29.53 in1000.0 mb 0.04 in1.0 mm 0.00 in0.0 mm 0.22 in5.6 mm
11:00 AM 52.9°F11.6°C 49.7°F9.8°C 89% 2.0 mph NNE3.2 kmh NNE 9.8 mph15.8 kmh 29.53 in1000.0 mb 0.04 in1.0 mm 0.00 in0.0 mm 0.22 in5.6 mm
11:05 AM 52.9°F11.6°C 49.7°F9.8°C 89% 1.1 mph N1.8 kmh N 5.1 mph8.2 kmh 29.53 in1000.0 mb 0.04 in1.0 mm 0.00 in0.0 mm 0.22 in5.6 mm
11:10 AM 53.1°F11.7°C 49.9°F9.9°C 89% 1.8 mph NNE2.9 kmh NNE 4.9 mph7.9 kmh 29.53 in1000.0 mb 0.04 in1.0 mm 0.00 in0.0 mm 0.22 in5.6 mm
11:15 AM 53.2°F11.8°C 50.1°F10.1°C 89% 2.2 mph N3.5 kmh N 8.5 mph13.7 kmh 29.53 in1000.0 mb 0.06 in1.5 mm 0.24 in6.1 mm 0.24 in6.1 mm
11:20 AM 53.2°F11.8°C 50.1°F10.1°C 89% 2.5 mph N4.0 kmh N 8.5 mph13.7 kmh 29.52 in999.7 mb 0.06 in1.5 mm 0.00 in0.0 mm 0.24 in6.1 mm
11:25 AM 53.4°F11.9°C 50.2°F10.1°C 89% Calm Calm 5.6 mph9.0 kmh 29.52 in999.7 mb 0.06 in1.5 mm 0.00 in0.0 mm 0.24 in6.1 mm
11:30 AM 53.4°F11.9°C 50.2°F10.1°C 89% 3.6 mph N5.8 kmh N 3.6 mph5.8 kmh 29.52 in999.7 mb 0.06 in1.5 mm 0.00 in0.0 mm 0.24 in6.1 mm
11:35 AM 53.6°F12.0°C 50.4°F10.2°C 89% 3.8 mph N6.1 kmh N 4.3 mph6.9 kmh 29.52 in999.7 mb 0.04 in1.0 mm 0.00 in0.0 mm 0.24 in6.1 mm
11:40 AM 53.8°F12.1°C 50.9°F10.5°C 90% Calm Calm 4.7 mph7.6 kmh 29.52 in999.7 mb 0.04 in1.0 mm 0.00 in0.0 mm 0.24 in6.1 mm
11:45 AM 54.0°F12.2°C 50.8°F10.4°C 89% 2.5 mph N4.0 kmh N 6.7 mph10.8 kmh 29.52 in999.7 mb 0.02 in0.5 mm 0.00 in0.0 mm 0.24 in6.1 mm
11:50 AM 54.1°F12.3°C 50.9°F10.5°C 89% 3.8 mph NNE6.1 kmh NNE 6.7 mph10.8 kmh 29.52 in999.7 mb 0.02 in0.5 mm 0.00 in0.0 mm 0.24 in6.1 mm
11:55 AM 54.1°F12.3°C 50.9°F10.5°C 89% 2.0 mph NNE3.2 kmh NNE 3.8 mph6.1 kmh 29.52 in999.7 mb 0.02 in0.5 mm 0.00 in0.0 mm 0.24 in6.1 mm
12:00 PM 54.3°F12.4°C 51.1°F10.6°C 89% 1.8 mph NNE2.9 kmh NNE 3.8 mph6.1 kmh 29.52 in999.7 mb 0.02 in0.5 mm 0.00 in0.0 mm 0.24 in6.1 mm
12:05 PM 54.3°F12.4°C 50.8°F10.4°C 88% 7.4 mph NNW11.9 kmh NNW 10.1 mph16.3 kmh 29.52 in999.7 mb 0.02 in0.5 mm 0.00 in0.0 mm 0.24 in6.1 mm
12:10 PM 54.3°F12.4°C 50.5°F10.3°C 87% 4.0 mph N6.4 kmh N 17.0 mph27.4 kmh 29.52 in999.7 mb 0.02 in0.5 mm 0.00 in0.0 mm 0.24 in6.1 mm
12:15 PM 54.5°F12.5°C 50.7°F10.4°C 87% 2.0 mph NE3.2 kmh NE 17.0 mph27.4 kmh 29.53 in1000.0 mb 0.00 in0.0 mm 0.00 in0.0 mm 0.24 in6.1 mm
12:20 PM 54.7°F12.6°C 50.8°F10.4°C 87% 3.4 mph NE5.5 kmh NE 8.3 mph13.4 kmh 29.52 in999.7 mb 0.00 in0.0 mm 0.00 in0.0 mm 0.24 in6.1 mm
12:25 PM 55.0°F12.8°C 51.2°F10.7°C 87% 1.8 mph NNE2.9 kmh NNE 6.7 mph10.8 kmh 29.53 in1000.0 mb 0.00 in0.0 mm 0.00 in0.0 mm 0.24 in6.1 mm
12:30 PM 55.2°F12.9°C 51.0°F10.6°C 86% Calm Calm 6.9 mph11.1 kmh 29.53 in1000.0 mb 0.00 in0.0 mm 0.00 in0.0 mm 0.24 in6.1 mm
12:35 PM 55.2°F12.9°C 51.0°F10.6°C 86% 2.9 mph N4.7 kmh N 7.4 mph11.9 kmh 29.53 in1000.0 mb 0.00 in0.0 mm 0.00 in0.0 mm 0.24 in6.1 mm
12:40 PM 55.2°F12.9°C 51.0°F10.6°C 86% 5.4 mph NNE8.7 kmh NNE 8.9 mph14.3 kmh 29.53 in1000.0 mb 0.00 in0.0 mm 0.00 in0.0 mm 0.24 in6.1 mm
12:45 PM 55.0°F12.8°C 50.6°F10.3°C 85% 3.8 mph NNE6.1 kmh NNE 14.8 mph23.8 kmh 29.53 in1000.0 mb 0.00 in0.0 mm 0.00 in0.0 mm 0.24 in6.1 mm
12:50 PM 55.0°F12.8°C 50.6°F10.3°C 85% 3.1 mph NNE5.0 kmh NNE 14.8 mph23.8 kmh 29.53 in1000.0 mb 0.00 in0.0 mm 0.00 in0.0 mm 0.24 in6.1 mm
12:55 PM 55.2°F12.9°C 50.7°F10.4°C 85% Calm Calm 10.1 mph16.3 kmh 29.53 in1000.0 mb 0.00 in0.0 mm 0.00 in0.0 mm 0.24 in6.1 mm
01:00 PM 55.2°F12.9°C 50.7°F10.4°C 85% 11.9 mph NNE19.2 kmh NNE 15.0 mph24.1 kmh 29.52 in999.7 mb 0.00 in0.0 mm 0.00 in0.0 mm 0.24 in6.1 mm
01:05 PM 55.2°F12.9°C 50.7°F10.4°C 85% 6.7 mph NE10.8 kmh NE 15.0 mph24.1 kmh 29.52 in999.7 mb 0.00 in0.0 mm 0.00 in0.0 mm 0.24 in6.1 mm
01:10 PM 55.2°F12.9°C 50.7°F10.4°C 85% 8.3 mph NE13.4 kmh NE 11.9 mph19.2 kmh 29.52 in999.7 mb 0.00 in0.0 mm 0.00 in0.0 mm 0.24 in6.1 mm
01:15 PM 55.2°F12.9°C 50.4°F10.2°C 84% 6.0 mph NNE9.7 kmh NNE 13.2 mph21.2 kmh 29.52 in999.7 mb 0.00 in0.0 mm 0.00 in0.0 mm 0.24 in6.1 mm
01:20 PM 55.2°F12.9°C 50.1°F10.1°C 83% 6.0 mph NNE9.7 kmh NNE 13.2 mph21.2 kmh 29.52 in999.7 mb 0.00 in0.0 mm 0.00 in0.0 mm 0.24 in6.1 mm
01:25 PM 55.2°F12.9°C 50.1°F10.1°C 83% 2.2 mph NE3.5 kmh NE 13.0 mph20.9 kmh 29.52 in999.7 mb 0.00 in0.0 mm 0.00 in0.0 mm 0.24 in6.1 mm
01:30 PM 55.2°F12.9°C 50.1°F10.1°C 83% 4.9 mph NNE7.9 kmh NNE 14.1 mph22.7 kmh 29.52 in999.7 mb 0.00 in0.0 mm 0.00 in0.0 mm 0.24 in6.1 mm
01:35 PM 55.2°F12.9°C 50.1°F10.1°C 83% 4.7 mph NNE7.6 kmh NNE 14.1 mph22.7 kmh 29.53 in1000.0 mb 0.00 in0.0 mm 0.00 in0.0 mm 0.24 in6.1 mm
01:40 PM 55.6°F13.1°C 50.1°F10.1°C 82% 7.4 mph NNE11.9 kmh NNE 11.4 mph18.3 kmh 29.53 in1000.0 mb 0.00 in0.0 mm 0.00 in0.0 mm 0.24 in6.1 mm
01:45 PM 55.9°F13.3°C 50.5°F10.3°C 82% 9.8 mph NNE15.8 kmh NNE 11.4 mph18.3 kmh 29.53 in1000.0 mb 0.00 in0.0 mm 0.00 in0.0 mm 0.24 in6.1 mm
01:50 PM 55.9°F13.3°C 50.5°F10.3°C 82% 2.9 mph N4.7 kmh N 10.1 mph16.3 kmh 29.53 in1000.0 mb 0.00 in0.0 mm 0.00 in0.0 mm 0.24 in6.1 mm
01:55 PM 56.3°F13.5°C 50.5°F10.3°C 81% 3.6 mph NNE5.8 kmh NNE 10.7 mph17.2 kmh 29.53 in1000.0 mb 0.00 in0.0 mm 0.00 in0.0 mm 0.24 in6.1 mm
02:00 PM 56.7°F13.7°C 50.4°F10.2°C 80% 7.4 mph NNE11.9 kmh NNE 13.6 mph21.9 kmh 29.53 in1000.0 mb 0.00 in0.0 mm 0.00 in0.0 mm 0.24 in6.1 mm
02:05 PM 57.0°F13.9°C 50.9°F10.5°C 80% 8.5 mph NE13.7 kmh NE 13.6 mph21.9 kmh 29.53 in1000.0 mb 0.00 in0.0 mm 0.00 in0.0 mm 0.24 in6.1 mm
02:10 PM 57.0°F13.9°C 50.5°F10.3°C 79% 8.1 mph NNE13.0 kmh NNE 15.0 mph24.1 kmh 29.53 in1000.0 mb 0.00 in0.0 mm 0.00 in0.0 mm 0.24 in6.1 mm
02:15 PM 57.0°F13.9°C 50.9°F10.5°C 80% 6.9 mph NNE11.1 kmh NNE 15.0 mph24.1 kmh 29.53 in1000.0 mb 0.00 in0.0 mm 0.00 in0.0 mm 0.24 in6.1 mm
02:20 PM 56.8°F13.8°C 50.7°F10.4°C 80% 1.6 mph NNE2.6 kmh NNE 14.3 mph23.0 kmh 29.53 in1000.0 mb 0.00 in0.0 mm 0.00 in0.0 mm 0.24 in6.1 mm
02:25 PM 56.8°F13.8°C 50.7°F10.4°C 80% 3.1 mph N5.0 kmh N 9.8 mph15.8 kmh 29.53 in1000.0 mb 0.00 in0.0 mm 0.00 in0.0 mm 0.24 in6.1 mm
02:30 PM 57.0°F13.9°C 50.9°F10.5°C 80% 2.9 mph N4.7 kmh N 6.7 mph10.8 kmh 29.53 in1000.0 mb 0.00 in0.0 mm 0.00 in0.0 mm 0.24 in6.1 mm
02:35 PM 57.4°F14.1°C 51.3°F10.7°C 80% Calm Calm 5.1 mph8.2 kmh 29.53 in1000.0 mb 0.00 in0.0 mm 0.00 in0.0 mm 0.24 in6.1 mm
02:40 PM 57.7°F14.3°C 51.3°F10.7°C 79% 1.6 mph NNW2.6 kmh NNW 3.1 mph5.0 kmh 29.53 in1000.0 mb 0.00 in0.0 mm 0.00 in0.0 mm 0.24 in6.1 mm
02:45 PM 57.4°F14.1°C 50.9°F10.5°C 78% 6.3 mph NNE10.1 kmh NNE 11.4 mph18.3 kmh 29.54 in1000.3 mb 0.00 in0.0 mm 0.00 in0.0 mm 0.24 in6.1 mm
02:50 PM 57.2°F14.0°C 50.4°F10.2°C 78% 2.7 mph NNE4.3 kmh NNE 11.4 mph18.3 kmh 29.54 in1000.3 mb 0.00 in0.0 mm 0.00 in0.0 mm 0.24 in6.1 mm
02:55 PM 57.0°F13.9°C 50.5°F10.3°C 79% 5.1 mph NNE8.2 kmh NNE 8.9 mph14.3 kmh 29.54 in1000.3 mb 0.00 in0.0 mm 0.00 in0.0 mm 0.24 in6.1 mm
03:00 PM 56.5°F13.6°C 50.4°F10.2°C 80% 3.6 mph NE5.8 kmh NE 12.8 mph20.6 kmh 29.55 in1000.7 mb 0.00 in0.0 mm 0.00 in0.0 mm 0.24 in6.1 mm
03:05 PM 56.3°F13.5°C 50.2°F10.1°C 80% 2.2 mph NNE3.5 kmh NNE 12.8 mph20.6 kmh 29.55 in1000.7 mb 0.00 in0.0 mm 0.00 in0.0 mm 0.24 in6.1 mm
03:10 PM 56.1°F13.4°C 50.0°F10.0°C 80% 2.9 mph NNE4.7 kmh NNE 11.2 mph18.0 kmh 29.55 in1000.7 mb 0.00 in0.0 mm 0.00 in0.0 mm 0.24 in6.1 mm
03:15 PM 56.1°F13.4°C 50.3°F10.2°C 81% 2.7 mph NNE4.3 kmh NNE 10.1 mph16.3 kmh 29.55 in1000.7 mb 0.00 in0.0 mm 0.00 in0.0 mm 0.24 in6.1 mm
03:20 PM 55.9°F13.3°C 50.5°F10.3°C 82% Calm Calm 9.2 mph14.8 kmh 29.55 in1000.7 mb 0.00 in0.0 mm 0.00 in0.0 mm 0.24 in6.1 mm
03:25 PM 55.8°F13.2°C 50.6°F10.3°C 83% Calm Calm 9.2 mph14.8 kmh 29.55 in1000.7 mb 0.00 in0.0 mm 0.00 in0.0 mm 0.24 in6.1 mm
03:30 PM 55.4°F13.0°C 50.3°F10.2°C 83% 1.8 mph NNE2.9 kmh NNE 7.4 mph11.9 kmh 29.56 in1001.0 mb 0.00 in0.0 mm 0.00 in0.0 mm 0.24 in6.1 mm
03:35 PM 55.2°F12.9°C 50.1°F10.1°C 83% 0.9 mph N1.4 kmh N 10.3 mph16.6 kmh 29.56 in1001.0 mb 0.00 in0.0 mm 0.00 in0.0 mm 0.24 in6.1 mm
03:40 PM 55.2°F12.9°C 50.1°F10.1°C 83% Calm Calm 10.3 mph16.6 kmh 29.56 in1001.0 mb 0.00 in0.0 mm 0.00 in0.0 mm 0.24 in6.1 mm
03:45 PM 55.0°F12.8°C 49.9°F9.9°C 83% Calm Calm 6.7 mph10.8 kmh 29.56 in1001.0 mb 0.00 in0.0 mm 0.00 in0.0 mm 0.24 in6.1 mm
03:50 PM 55.2°F12.9°C 50.1°F10.1°C 83% 4.7 mph NNE7.6 kmh NNE 6.3 mph10.1 kmh 29.56 in1001.0 mb 0.00 in0.0 mm 0.00 in0.0 mm 0.24 in6.1 mm
03:55 PM 55.2°F12.9°C 50.1°F10.1°C 83% 3.6 mph NNE5.8 kmh NNE 7.8 mph12.6 kmh 29.56 in1001.0 mb 0.00 in0.0 mm 0.00 in0.0 mm 0.24 in6.1 mm
04:00 PM 55.2°F12.9°C 50.1°F10.1°C 83% Calm Calm 8.3 mph13.4 kmh 29.56 in1001.0 mb 0.00 in0.0 mm 0.00 in0.0 mm 0.24 in6.1 mm
04:05 PM 55.2°F12.9°C 50.1°F10.1°C 83% 1.8 mph N2.9 kmh N 8.3 mph13.4 kmh 29.57 in1001.4 mb 0.00 in0.0 mm 0.00 in0.0 mm 0.24 in6.1 mm
04:10 PM 55.2°F12.9°C 50.1°F10.1°C 83% 6.5 mph NNE10.5 kmh NNE 6.5 mph10.5 kmh 29.57 in1001.4 mb 0.00 in0.0 mm 0.00 in0.0 mm 0.24 in6.1 mm
04:15 PM 55.2°F12.9°C 50.1°F10.1°C 83% 2.0 mph NNE3.2 kmh NNE 9.2 mph14.8 kmh 29.57 in1001.4 mb 0.00 in0.0 mm 0.00 in0.0 mm 0.24 in6.1 mm
04:20 PM 55.2°F12.9°C 50.4°F10.2°C 84% 8.3 mph NNE13.4 kmh NNE 11.9 mph19.2 kmh 29.57 in1001.4 mb 0.00 in0.0 mm 0.00 in0.0 mm 0.24 in6.1 mm
04:25 PM 55.2°F12.9°C 50.4°F10.2°C 84% 2.9 mph NNE4.7 kmh NNE 11.9 mph19.2 kmh 29.57 in1001.4 mb 0.00 in0.0 mm 0.00 in0.0 mm 0.24 in6.1 mm
04:30 PM 55.2°F12.9°C 50.4°F10.2°C 84% 2.0 mph NNE3.2 kmh NNE 9.4 mph15.1 kmh 29.57 in1001.4 mb 0.00 in0.0 mm 0.00 in0.0 mm 0.24 in6.1 mm
04:35 PM 55.2°F12.9°C 50.4°F10.2°C 84% 2.7 mph NE4.3 kmh NE 7.6 mph12.2 kmh 29.57 in1001.4 mb 0.00 in0.0 mm 0.00 in0.0 mm 0.24 in6.1 mm
04:40 PM 55.0°F12.8°C 50.2°F10.1°C 84% 2.5 mph NNE4.0 kmh NNE 9.8 mph15.8 kmh 29.57 in1001.4 mb 0.00 in0.0 mm 0.00 in0.0 mm 0.24 in6.1 mm
04:45 PM 55.0°F12.8°C 50.2°F10.1°C 84% 3.6 mph NNE5.8 kmh NNE 9.8 mph15.8 kmh 29.58 in1001.7 mb 0.00 in0.0 mm 0.00 in0.0 mm 0.24 in6.1 mm
04:50 PM 55.0°F12.8°C 50.2°F10.1°C 84% 4.7 mph NNE7.6 kmh NNE 6.5 mph10.5 kmh 29.58 in1001.7 mb 0.00 in0.0 mm 0.00 in0.0 mm 0.24 in6.1 mm
04:55 PM 55.2°F12.9°C 50.4°F10.2°C 84% 6.0 mph NE9.7 kmh NE 9.2 mph14.8 kmh 29.58 in1001.7 mb 0.00 in0.0 mm 0.00 in0.0 mm 0.24 in6.1 mm
05:00 PM 55.2°F12.9°C 50.4°F10.2°C 84% Calm Calm 9.2 mph14.8 kmh 29.58 in1001.7 mb 0.00 in0.0 mm 0.00 in0.0 mm 0.24 in6.1 mm
05:05 PM 55.0°F12.8°C 50.2°F10.1°C 84% Calm Calm 6.5 mph10.5 kmh 29.58 in1001.7 mb 0.00 in0.0 mm 0.00 in0.0 mm 0.24 in6.1 mm
05:10 PM 55.0°F12.8°C 50.2°F10.1°C 84% Calm Calm 6.0 mph9.7 kmh 29.58 in1001.7 mb 0.00 in0.0 mm 0.00 in0.0 mm 0.24 in6.1 mm
05:15 PM 55.0°F12.8°C 50.2°F10.1°C 84% 1.3 mph NNE2.1 kmh NNE 6.0 mph9.7 kmh 29.59 in1002.0 mb 0.00 in0.0 mm 0.00 in0.0 mm 0.24 in6.1 mm
05:20 PM 54.9°F12.7°C 50.1°F10.1°C 84% Calm Calm 3.8 mph6.1 kmh 29.59 in1002.0 mb 0.00 in0.0 mm 0.00 in0.0 mm 0.24 in6.1 mm
05:25 PM 54.9°F12.7°C 50.1°F10.1°C 84% 2.0 mph N3.2 kmh N 4.5 mph7.2 kmh 29.59 in1002.0 mb 0.00 in0.0 mm 0.00 in0.0 mm 0.24 in6.1 mm
05:30 PM 54.7°F12.6°C 49.9°F9.9°C 84% Calm Calm 6.0 mph9.7 kmh 29.59 in1002.0 mb 0.00 in0.0 mm 0.00 in0.0 mm 0.24 in6.1 mm
05:35 PM 54.7°F12.6°C 49.9°F9.9°C 84% 1.3 mph NE2.1 kmh NE 6.0 mph9.7 kmh 29.60 in1002.4 mb 0.00 in0.0 mm 0.00 in0.0 mm 0.24 in6.1 mm
05:40 PM 54.7°F12.6°C 50.2°F10.1°C 85% 3.4 mph N5.5 kmh N 6.9 mph11.1 kmh 29.60 in1002.4 mb 0.00 in0.0 mm 0.00 in0.0 mm 0.24 in6.1 mm
05:45 PM 54.7°F12.6°C 50.2°F10.1°C 85% 1.8 mph NNW2.9 kmh NNW 6.9 mph11.1 kmh 29.60 in1002.4 mb 0.00 in0.0 mm 0.00 in0.0 mm 0.24 in6.1 mm
05:50 PM 54.5°F12.5°C 50.0°F10.0°C 85% Calm Calm 6.7 mph10.8 kmh 29.60 in1002.4 mb 0.00 in0.0 mm 0.00 in0.0 mm 0.24 in6.1 mm
05:55 PM 54.5°F12.5°C 50.0°F10.0°C 85% Calm Calm 6.5 mph10.5 kmh 29.60 in1002.4 mb 0.00 in0.0 mm 0.00 in0.0 mm 0.24 in6.1 mm
06:00 PM 54.5°F12.5°C 50.0°F10.0°C 85% 1.6 mph NNW2.6 kmh NNW 4.9 mph7.9 kmh 29.60 in1002.4 mb 0.00 in0.0 mm 0.00 in0.0 mm 0.24 in6.1 mm
06:05 PM 54.3°F12.4°C 49.9°F9.9°C 85% 8.1 mph N13.0 kmh N 8.1 mph13.0 kmh 29.61 in1002.7 mb 0.00 in0.0 mm 0.00 in0.0 mm 0.24 in6.1 mm
06:10 PM 54.3°F12.4°C 49.9°F9.9°C 85% 2.0 mph NNE3.2 kmh NNE 8.1 mph13.0 kmh 29.60 in1002.4 mb 0.00 in0.0 mm 0.00 in0.0 mm 0.24 in6.1 mm
06:15 PM 54.3°F12.4°C 49.9°F9.9°C 85% 2.5 mph NE4.0 kmh NE 8.1 mph13.0 kmh 29.61 in1002.7 mb 0.00 in0.0 mm 0.00 in0.0 mm 0.24 in6.1 mm
06:20 PM 54.3°F12.4°C 49.9°F9.9°C 85% Calm Calm 6.0 mph9.7 kmh 29.61 in1002.7 mb 0.00 in0.0 mm 0.00 in0.0 mm 0.24 in6.1 mm
06:25 PM 54.3°F12.4°C 49.9°F9.9°C 85% Calm Calm 4.0 mph6.4 kmh 29.61 in1002.7 mb 0.00 in0.0 mm 0.00 in0.0 mm 0.24 in6.1 mm
06:30 PM 54.3°F12.4°C 49.9°F9.9°C 85% Calm Calm 2.9 mph4.7 kmh 29.61 in1002.7 mb 0.00 in0.0 mm 0.00 in0.0 mm 0.24 in6.1 mm
06:35 PM 54.3°F12.4°C 49.9°F9.9°C 85% 4.5 mph NW7.2 kmh NW 5.1 mph8.2 kmh 29.61 in1002.7 mb 0.00 in0.0 mm 0.00 in0.0 mm 0.24 in6.1 mm
06:40 PM 54.3°F12.4°C 49.9°F9.9°C 85% Calm Calm 5.1 mph8.2 kmh 29.61 in1002.7 mb 0.00 in0.0 mm 0.00 in0.0 mm 0.24 in6.1 mm
06:45 PM 54.3°F12.4°C 49.9°F9.9°C 85% 1.6 mph W2.6 kmh W 4.5 mph7.2 kmh 29.61 in1002.7 mb 0.00 in0.0 mm 0.00 in0.0 mm 0.24 in6.1 mm
06:50 PM 54.3°F12.4°C 49.9°F9.9°C 85% Calm Calm 4.3 mph6.9 kmh 29.62 in1003.0 mb 0.00 in0.0 mm 0.00 in0.0 mm 0.24 in6.1 mm
06:55 PM 54.1°F12.3°C 49.7°F9.8°C 85% 1.6 mph WSW2.6 kmh WSW 3.6 mph5.8 kmh 29.62 in1003.0 mb 0.00 in0.0 mm 0.00 in0.0 mm 0.24 in6.1 mm
07:00 PM 54.1°F12.3°C 49.7°F9.8°C 85% Calm Calm 4.3 mph6.9 kmh 29.62 in1003.0 mb 0.00 in0.0 mm 0.00 in0.0 mm 0.24 in6.1 mm
07:05 PM 54.0°F12.2°C 49.5°F9.7°C 85% 2.5 mph SW4.0 kmh SW 4.3 mph6.9 kmh 29.62 in1003.0 mb 0.00 in0.0 mm 0.00 in0.0 mm 0.24 in6.1 mm
07:10 PM 53.4°F11.9°C 49.0°F9.4°C 85% 1.6 mph SW2.6 kmh SW 4.0 mph6.4 kmh 29.62 in1003.0 mb 0.00 in0.0 mm 0.00 in0.0 mm 0.24 in6.1 mm
07:15 PM 53.4°F11.9°C 49.3°F9.6°C 86% 0.9 mph SSW1.4 kmh SSW 3.1 mph5.0 kmh 29.62 in1003.0 mb 0.00 in0.0 mm 0.00 in0.0 mm 0.24 in6.1 mm
07:20 PM 53.4°F11.9°C 49.3°F9.6°C 86% Calm Calm 2.9 mph4.7 kmh 29.63 in1003.4 mb 0.00 in0.0 mm 0.00 in0.0 mm 0.24 in6.1 mm
07:25 PM 53.4°F11.9°C 49.3°F9.6°C 86% 6.3 mph SE10.1 kmh SE 6.3 mph10.1 kmh 29.63 in1003.4 mb 0.00 in0.0 mm 0.00 in0.0 mm 0.24 in6.1 mm
07:30 PM 53.4°F11.9°C 49.3°F9.6°C 86% Calm Calm 6.9 mph11.1 kmh 29.63 in1003.4 mb 0.00 in0.0 mm 0.00 in0.0 mm 0.24 in6.1 mm
07:35 PM 53.4°F11.9°C 49.3°F9.6°C 86% Calm Calm 6.9 mph11.1 kmh 29.63 in1003.4 mb 0.00 in0.0 mm 0.00 in0.0 mm 0.24 in6.1 mm
07:40 PM 53.6°F12.0°C 49.5°F9.7°C 86% Calm Calm 8.3 mph13.4 kmh 29.63 in1003.4 mb 0.00 in0.0 mm 0.00 in0.0 mm 0.24 in6.1 mm
07:45 PM 53.4°F11.9°C 49.3°F9.6°C 86% 1.3 mph SSE2.1 kmh SSE 8.3 mph13.4 kmh 29.64 in1003.7 mb 0.00 in0.0 mm 0.00 in0.0 mm 0.24 in6.1 mm
07:50 PM 53.2°F11.8°C 49.1°F9.5°C 86% 3.6 mph SSW5.8 kmh SSW 5.1 mph8.2 kmh 29.64 in1003.7 mb 0.00 in0.0 mm 0.00 in0.0 mm 0.24 in6.1 mm
07:55 PM 53.1°F11.7°C 49.0°F9.4°C 86% 2.9 mph SW4.7 kmh SW 5.1 mph8.2 kmh 29.64 in1003.7 mb 0.00 in0.0 mm 0.00 in0.0 mm 0.24 in6.1 mm
08:00 PM 52.7°F11.5°C 48.6°F9.2°C 86% 4.3 mph SW6.9 kmh SW 5.8 mph9.3 kmh 29.64 in1003.7 mb 0.00 in0.0 mm 0.00 in0.0 mm 0.24 in6.1 mm
08:05 PM 52.9°F11.6°C 49.1°F9.5°C 87% 2.2 mph S3.5 kmh S 8.1 mph13.0 kmh 29.64 in1003.7 mb 0.00 in0.0 mm 0.00 in0.0 mm 0.24 in6.1 mm
08:10 PM 52.9°F11.6°C 49.1°F9.5°C 87% 1.8 mph S2.9 kmh S 8.1 mph13.0 kmh 29.64 in1003.7 mb 0.00 in0.0 mm 0.00 in0.0 mm 0.24 in6.1 mm
08:15 PM 52.9°F11.6°C 49.1°F9.5°C 87% Calm Calm 4.5 mph7.2 kmh 29.64 in1003.7 mb 0.00 in0.0 mm 0.00 in0.0 mm 0.24 in6.1 mm
08:20 PM 52.7°F11.5°C 48.9°F9.4°C 87% 2.9 mph SW4.7 kmh SW 4.5 mph7.2 kmh 29.65 in1004.1 mb 0.00 in0.0 mm 0.00 in0.0 mm 0.24 in6.1 mm
08:25 PM 52.3°F11.3°C 48.5°F9.2°C 87% 2.5 mph SW4.0 kmh SW 5.1 mph8.2 kmh 29.65 in1004.1 mb 0.00 in0.0 mm 0.00 in0.0 mm 0.24 in6.1 mm
08:30 PM 51.8°F11.0°C 48.0°F8.9°C 87% 7.2 mph SW11.6 kmh SW 7.2 mph11.6 kmh 29.65 in1004.1 mb 0.00 in0.0 mm 0.00 in0.0 mm 0.24 in6.1 mm
08:35 PM 51.6°F10.9°C 47.8°F8.8°C 87% 3.1 mph SW5.0 kmh SW 7.6 mph12.2 kmh 29.65 in1004.1 mb 0.00 in0.0 mm 0.00 in0.0 mm 0.24 in6.1 mm
08:40 PM 51.4°F10.8°C 47.9°F8.8°C 88% 4.3 mph SW6.9 kmh SW 8.9 mph14.3 kmh 29.65 in1004.1 mb 0.00 in0.0 mm 0.00 in0.0 mm 0.24 in6.1 mm
08:45 PM 51.4°F10.8°C 47.9°F8.8°C 88% 1.6 mph SW2.6 kmh SW 8.9 mph14.3 kmh 29.65 in1004.1 mb 0.00 in0.0 mm 0.00 in0.0 mm 0.24 in6.1 mm
08:50 PM 51.3°F10.7°C 47.8°F8.8°C 88% 3.6 mph SW5.8 kmh SW 6.5 mph10.5 kmh 29.65 in1004.1 mb 0.00 in0.0 mm 0.00 in0.0 mm 0.24 in6.1 mm
08:55 PM 51.4°F10.8°C 47.9°F8.8°C 88% 2.2 mph SSW3.5 kmh SSW 4.9 mph7.9 kmh 29.66 in1004.4 mb 0.00 in0.0 mm 0.00 in0.0 mm 0.24 in6.1 mm
09:00 PM 51.4°F10.8°C 47.9°F8.8°C 88% Calm Calm 4.9 mph7.9 kmh 29.66 in1004.4 mb 0.00 in0.0 mm 0.00 in0.0 mm 0.24 in6.1 mm
09:05 PM 51.3°F10.7°C 47.8°F8.8°C 88% Calm Calm 3.6 mph5.8 kmh 29.66 in1004.4 mb 0.00 in0.0 mm 0.00 in0.0 mm 0.24 in6.1 mm
09:10 PM 51.1°F10.6°C 47.6°F8.7°C 88% 1.8 mph SW2.9 kmh SW 3.6 mph5.8 kmh 29.66 in1004.4 mb 0.00 in0.0 mm 0.00 in0.0 mm 0.24 in6.1 mm
09:15 PM 51.1°F10.6°C 47.6°F8.7°C 88% 2.5 mph SW4.0 kmh SW 3.1 mph5.0 kmh 29.66 in1004.4 mb 0.00 in0.0 mm 0.00 in0.0 mm 0.24 in6.1 mm
09:20 PM 50.9°F10.5°C 47.4°F8.6°C 88% 1.1 mph WSW1.8 kmh WSW 3.1 mph5.0 kmh 29.66 in1004.4 mb 0.00 in0.0 mm 0.00 in0.0 mm 0.24 in6.1 mm
09:25 PM 50.7°F10.4°C 47.5°F8.6°C 89% Calm Calm 4.3 mph6.9 kmh 29.66 in1004.4 mb 0.00 in0.0 mm 0.00 in0.0 mm 0.24 in6.1 mm
09:30 PM 51.1°F10.6°C 47.9°F8.8°C 89% 1.3 mph SW2.1 kmh SW 5.8 mph9.3 kmh 29.67 in1004.7 mb 0.00 in0.0 mm 0.00 in0.0 mm 0.24 in6.1 mm
09:35 PM 51.3°F10.7°C 48.1°F8.9°C 89% 2.0 mph SW3.2 kmh SW 6.3 mph10.1 kmh 29.67 in1004.7 mb 0.00 in0.0 mm 0.00 in0.0 mm 0.24 in6.1 mm
09:40 PM 51.4°F10.8°C 48.3°F9.1°C 89% 4.3 mph SW6.9 kmh SW 7.6 mph12.2 kmh 29.67 in1004.7 mb 0.00 in0.0 mm 0.00 in0.0 mm 0.24 in6.1 mm
09:45 PM 51.8°F11.0°C 48.6°F9.2°C 89% 8.5 mph SSW13.7 kmh SSW 10.5 mph16.9 kmh 29.67 in1004.7 mb 0.00 in0.0 mm 0.00 in0.0 mm 0.24 in6.1 mm
09:50 PM 52.3°F11.3°C 49.2°F9.6°C 89% 3.1 mph SSW5.0 kmh SSW 10.5 mph16.9 kmh 29.67 in1004.7 mb 0.00 in0.0 mm 0.00 in0.0 mm 0.24 in6.1 mm
09:55 PM 52.5°F11.4°C 49.0°F9.4°C 88% 4.0 mph SSW6.4 kmh SSW 10.3 mph16.6 kmh 29.67 in1004.7 mb 0.00 in0.0 mm 0.00 in0.0 mm 0.24 in6.1 mm
10:00 PM 52.5°F11.4°C 49.0°F9.4°C 88% 10.1 mph SSW16.3 kmh SSW 11.9 mph19.2 kmh 29.67 in1004.7 mb 0.00 in0.0 mm 0.00 in0.0 mm 0.24 in6.1 mm
10:05 PM 52.7°F11.5°C 49.2°F9.6°C 88% 8.1 mph SSW13.0 kmh SSW 13.0 mph20.9 kmh 29.67 in1004.7 mb 0.00 in0.0 mm 0.00 in0.0 mm 0.24 in6.1 mm
10:10 PM 52.5°F11.4°C 49.0°F9.4°C 88% 8.3 mph SW13.4 kmh SW 13.0 mph20.9 kmh 29.67 in1004.7 mb 0.00 in0.0 mm 0.00 in0.0 mm 0.24 in6.1 mm
10:15 PM 52.5°F11.4°C 49.0°F9.4°C 88% 6.7 mph SW10.8 kmh SW 11.4 mph18.3 kmh 29.67 in1004.7 mb 0.00 in0.0 mm 0.00 in0.0 mm 0.24 in6.1 mm
10:20 PM 52.3°F11.3°C 48.8°F9.3°C 88% 3.8 mph SW6.1 kmh SW 9.2 mph14.8 kmh 29.67 in1004.7 mb 0.00 in0.0 mm 0.00 in0.0 mm 0.24 in6.1 mm
10:25 PM 52.0°F11.1°C 48.5°F9.2°C 88% 2.5 mph SW4.0 kmh SW 7.8 mph12.6 kmh 29.67 in1004.7 mb 0.00 in0.0 mm 0.00 in0.0 mm 0.24 in6.1 mm
10:30 PM 52.0°F11.1°C 48.5°F9.2°C 88% 6.0 mph SW9.7 kmh SW 7.6 mph12.2 kmh 29.67 in1004.7 mb 0.00 in0.0 mm 0.00 in0.0 mm 0.24 in6.1 mm
10:35 PM 52.2°F11.2°C 49.0°F9.4°C 89% 4.5 mph WSW7.2 kmh WSW 9.2 mph14.8 kmh 29.67 in1004.7 mb 0.00 in0.0 mm 0.00 in0.0 mm 0.24 in6.1 mm
10:40 PM 52.3°F11.3°C 49.2°F9.6°C 89% 4.5 mph WSW7.2 kmh WSW 10.5 mph16.9 kmh 29.67 in1004.7 mb 0.00 in0.0 mm 0.00 in0.0 mm 0.24 in6.1 mm
10:45 PM 52.3°F11.3°C 48.8°F9.3°C 88% 5.6 mph WSW9.0 kmh WSW 10.5 mph16.9 kmh 29.67 in1004.7 mb 0.00 in0.0 mm 0.00 in0.0 mm 0.24 in6.1 mm
10:50 PM 52.2°F11.2°C 48.7°F9.3°C 88% 3.1 mph SW5.0 kmh SW 7.4 mph11.9 kmh 29.67 in1004.7 mb 0.00 in0.0 mm 0.00 in0.0 mm 0.24 in6.1 mm
10:55 PM 52.2°F11.2°C 48.7°F9.3°C 88% 4.3 mph WSW6.9 kmh WSW 6.0 mph9.7 kmh 29.67 in1004.7 mb 0.00 in0.0 mm 0.00 in0.0 mm 0.24 in6.1 mm
11:00 PM 52.3°F11.3°C 48.8°F9.3°C 88% 4.3 mph WSW6.9 kmh WSW 10.3 mph16.6 kmh 29.68 in1005.1 mb 0.00 in0.0 mm 0.00 in0.0 mm 0.24 in6.1 mm
11:05 PM 52.3°F11.3°C 48.8°F9.3°C 88% 5.4 mph WSW8.7 kmh WSW 11.2 mph18.0 kmh 29.68 in1005.1 mb 0.00 in0.0 mm 0.00 in0.0 mm 0.24 in6.1 mm
11:10 PM 52.3°F11.3°C 48.8°F9.3°C 88% 6.0 mph WSW9.7 kmh WSW 13.0 mph20.9 kmh 29.68 in1005.1 mb 0.00 in0.0 mm 0.00 in0.0 mm 0.24 in6.1 mm
11:15 PM 52.2°F11.2°C 48.7°F9.3°C 88% 4.7 mph WSW7.6 kmh WSW 13.0 mph20.9 kmh 29.67 in1004.7 mb 0.00 in0.0 mm 0.00 in0.0 mm 0.24 in6.1 mm
11:20 PM 52.2°F11.2°C 48.7°F9.3°C 88% Calm Calm 9.4 mph15.1 kmh 29.67 in1004.7 mb 0.00 in0.0 mm 0.00 in0.0 mm 0.24 in6.1 mm
11:25 PM 51.8°F11.0°C 48.3°F9.1°C 88% Calm Calm 5.1 mph8.2 kmh 29.68 in1005.1 mb 0.00 in0.0 mm 0.00 in0.0 mm 0.24 in6.1 mm
11:30 PM 51.6°F10.9°C 48.1°F8.9°C 88% 2.9 mph SSW4.7 kmh SSW 3.1 mph5.0 kmh 29.68 in1005.1 mb 0.00 in0.0 mm 0.00 in0.0 mm 0.24 in6.1 mm
11:35 PM 51.4°F10.8°C 47.9°F8.8°C 88% Calm Calm 3.8 mph6.1 kmh 29.68 in1005.1 mb 0.00 in0.0 mm 0.00 in0.0 mm 0.24 in6.1 mm
11:40 PM 51.4°F10.8°C 47.9°F8.8°C 88% 1.3 mph SW2.1 kmh SW 3.8 mph6.1 kmh 29.68 in1005.1 mb 0.00 in0.0 mm 0.00 in0.0 mm 0.24 in6.1 mm
11:45 PM 51.4°F10.8°C 47.9°F8.8°C 88% 1.6 mph SW2.6 kmh SW 3.1 mph5.0 kmh 29.68 in1005.1 mb 0.00 in0.0 mm 0.00 in0.0 mm 0.24 in6.1 mm
11:50 PM 51.4°F10.8°C 47.9°F8.8°C 88% 2.2 mph SW3.5 kmh SW 4.3 mph6.9 kmh 29.68 in1005.1 mb 0.00 in0.0 mm 0.00 in0.0 mm 0.24 in6.1 mm
11:55 PM 51.6°F10.9°C 48.1°F8.9°C 88% 1.3 mph SW2.1 kmh SW 4.3 mph6.9 kmh 29.68 in1005.1 mb 0.00 in0.0 mm 0.00 in0.0 mm 0.24 in6.1 mm